sensor_id;sensor_type;location;lat;lon;timestamp;temperature;humidity
49184;DHT22;35021;49.214;12.270;2024-02-28T00:00:26;21.20;35.20
49184;DHT22;35021;49.214;12.270;2024-02-28T00:02:53;21.20;35.20
49184;DHT22;35021;49.214;12.270;2024-02-28T00:05:20;21.20;35.20
49184;DHT22;35021;49.214;12.270;2024-02-28T00:07:48;21.20;35.20
49184;DHT22;35021;49.214;12.270;2024-02-28T00:10:15;21.20;35.10
49184;DHT22;35021;49.214;12.270;2024-02-28T00:12:42;21.20;35.10
49184;DHT22;35021;49.214;12.270;2024-02-28T00:15:09;21.20;35.00
49184;DHT22;35021;49.214;12.270;2024-02-28T00:17:40;21.20;35.10
49184;DHT22;35021;49.214;12.270;2024-02-28T00:20:08;21.20;35.00
49184;DHT22;35021;49.214;12.270;2024-02-28T00:22:35;21.20;35.00
49184;DHT22;35021;49.214;12.270;2024-02-28T00:25:03;21.20;35.00
49184;DHT22;35021;49.214;12.270;2024-02-28T00:27:32;21.20;34.90
49184;DHT22;35021;49.214;12.270;2024-02-28T00:30:00;21.20;35.00
49184;DHT22;35021;49.214;12.270;2024-02-28T00:32:28;21.20;34.90
49184;DHT22;35021;49.214;12.270;2024-02-28T00:34:54;21.20;34.90
49184;DHT22;35021;49.214;12.270;2024-02-28T00:37:21;21.20;34.90
49184;DHT22;35021;49.214;12.270;2024-02-28T00:39:49;21.20;34.90
49184;DHT22;35021;49.214;12.270;2024-02-28T00:42:16;21.30;34.90
49184;DHT22;35021;49.214;12.270;2024-02-28T00:44:43;21.30;34.90
49184;DHT22;35021;49.214;12.270;2024-02-28T00:47:10;21.30;34.90
49184;DHT22;35021;49.214;12.270;2024-02-28T00:49:37;21.30;34.90
49184;DHT22;35021;49.214;12.270;2024-02-28T00:52:04;21.30;34.90
49184;DHT22;35021;49.214;12.270;2024-02-28T00:54:32;21.30;34.90
49184;DHT22;35021;49.214;12.270;2024-02-28T00:56:59;21.30;34.80
49184;DHT22;35021;49.214;12.270;2024-02-28T00:59:26;21.30;34.70
49184;DHT22;35021;49.214;12.270;2024-02-28T01:01:53;21.30;34.70
49184;DHT22;35021;49.214;12.270;2024-02-28T01:04:20;21.20;34.60
49184;DHT22;35021;49.214;12.270;2024-02-28T01:06:47;21.20;34.50
49184;DHT22;35021;49.214;12.270;2024-02-28T01:09:14;21.20;34.50
49184;DHT22;35021;49.214;12.270;2024-02-28T01:11:41;21.20;34.50
49184;DHT22;35021;49.214;12.270;2024-02-28T01:14:08;21.20;34.50
49184;DHT22;35021;49.214;12.270;2024-02-28T01:16:35;21.20;34.40
49184;DHT22;35021;49.214;12.270;2024-02-28T01:19:02;21.20;34.40
49184;DHT22;35021;49.214;12.270;2024-02-28T01:21:30;21.20;34.40
49184;DHT22;35021;49.214;12.270;2024-02-28T01:23:56;21.20;34.40
49184;DHT22;35021;49.214;12.270;2024-02-28T01:26:23;21.10;34.40
49184;DHT22;35021;49.214;12.270;2024-02-28T01:28:50;21.10;34.40
49184;DHT22;35021;49.214;12.270;2024-02-28T01:31:17;21.20;34.50
49184;DHT22;35021;49.214;12.270;2024-02-28T01:33:44;21.20;34.60
49184;DHT22;35021;49.214;12.270;2024-02-28T01:36:11;21.10;34.50
49184;DHT22;35021;49.214;12.270;2024-02-28T01:38:39;21.10;34.60
49184;DHT22;35021;49.214;12.270;2024-02-28T01:41:05;21.10;34.60
49184;DHT22;35021;49.214;12.270;2024-02-28T01:43:32;21.10;34.60
49184;DHT22;35021;49.214;12.270;2024-02-28T01:46:00;21.10;34.60
49184;DHT22;35021;49.214;12.270;2024-02-28T01:48:28;21.10;34.60
49184;DHT22;35021;49.214;12.270;2024-02-28T01:50:56;21.10;34.70
49184;DHT22;35021;49.214;12.270;2024-02-28T01:53:23;21.10;34.70
49184;DHT22;35021;49.214;12.270;2024-02-28T01:55:50;21.20;34.80
49184;DHT22;35021;49.214;12.270;2024-02-28T01:58:18;21.20;34.80
49184;DHT22;35021;49.214;12.270;2024-02-28T02:00:46;21.10;34.80
49184;DHT22;35021;49.214;12.270;2024-02-28T02:03:15;21.10;34.80
49184;DHT22;35021;49.214;12.270;2024-02-28T02:05:42;21.20;34.90
49184;DHT22;35021;49.214;12.270;2024-02-28T02:08:10;21.20;35.00
49184;DHT22;35021;49.214;12.270;2024-02-28T02:10:37;21.20;35.00
49184;DHT22;35021;49.214;12.270;2024-02-28T02:13:07;21.20;35.00
49184;DHT22;35021;49.214;12.270;2024-02-28T02:15:34;21.20;35.00
49184;DHT22;35021;49.214;12.270;2024-02-28T02:18:01;21.20;35.00
49184;DHT22;35021;49.214;12.270;2024-02-28T02:20:30;21.20;35.00
49184;DHT22;35021;49.214;12.270;2024-02-28T02:22:58;21.20;34.90
49184;DHT22;35021;49.214;12.270;2024-02-28T02:25:26;21.20;34.90
49184;DHT22;35021;49.214;12.270;2024-02-28T02:27:53;21.20;34.90
49184;DHT22;35021;49.214;12.270;2024-02-28T02:30:20;21.20;34.90
49184;DHT22;35021;49.214;12.270;2024-02-28T02:32:47;21.20;34.80
49184;DHT22;35021;49.214;12.270;2024-02-28T02:35:14;21.20;34.80
49184;DHT22;35021;49.214;12.270;2024-02-28T02:37:44;21.20;34.80
49184;DHT22;35021;49.214;12.270;2024-02-28T02:40:12;21.20;34.80
49184;DHT22;35021;49.214;12.270;2024-02-28T02:42:39;21.20;34.80
49184;DHT22;35021;49.214;12.270;2024-02-28T02:45:06;21.20;34.80
49184;DHT22;35021;49.214;12.270;2024-02-28T02:47:33;21.20;34.90
49184;DHT22;35021;49.214;12.270;2024-02-28T02:50:00;21.20;34.90
49184;DHT22;35021;49.214;12.270;2024-02-28T02:52:28;21.10;34.90
49184;DHT22;35021;49.214;12.270;2024-02-28T02:54:55;21.10;35.00
49184;DHT22;35021;49.214;12.270;2024-02-28T02:57:22;21.10;35.00
49184;DHT22;35021;49.214;12.270;2024-02-28T02:59:49;21.10;35.10
49184;DHT22;35021;49.214;12.270;2024-02-28T03:02:16;21.10;35.80
49184;DHT22;35021;49.214;12.270;2024-02-28T03:04:43;21.10;35.00
49184;DHT22;35021;49.214;12.270;2024-02-28T03:07:10;21.20;35.00
49184;DHT22;35021;49.214;12.270;2024-02-28T03:09:37;21.30;34.90
49184;DHT22;35021;49.214;12.270;2024-02-28T03:12:04;21.40;34.80
49184;DHT22;35021;49.214;12.270;2024-02-28T03:14:31;21.50;34.80
49184;DHT22;35021;49.214;12.270;2024-02-28T03:16:58;21.60;34.70
49184;DHT22;35021;49.214;12.270;2024-02-28T03:19:25;21.60;34.50
49184;DHT22;35021;49.214;12.270;2024-02-28T03:21:52;21.70;34.40
49184;DHT22;35021;49.214;12.270;2024-02-28T03:24:19;21.70;34.40
49184;DHT22;35021;49.214;12.270;2024-02-28T03:26:46;21.80;34.40
49184;DHT22;35021;49.214;12.270;2024-02-28T03:29:13;21.80;34.40
49184;DHT22;35021;49.214;12.270;2024-02-28T03:31:41;21.80;34.40
49184;DHT22;35021;49.214;12.270;2024-02-28T03:34:08;21.70;34.40
49184;DHT22;35021;49.214;12.270;2024-02-28T03:36:35;21.70;34.50
49184;DHT22;35021;49.214;12.270;2024-02-28T03:39:03;21.70;34.60
49184;DHT22;35021;49.214;12.270;2024-02-28T03:41:31;21.70;34.50
49184;DHT22;35021;49.214;12.270;2024-02-28T03:43:58;21.70;34.60
49184;DHT22;35021;49.214;12.270;2024-02-28T03:46:25;21.80;34.50
49184;DHT22;35021;49.214;12.270;2024-02-28T03:48:53;21.80;34.40
49184;DHT22;35021;49.214;12.270;2024-02-28T03:51:20;21.90;34.30
49184;DHT22;35021;49.214;12.270;2024-02-28T03:53:47;22.00;34.20
49184;DHT22;35021;49.214;12.270;2024-02-28T03:56:21;22.00;34.10
49184;DHT22;35021;49.214;12.270;2024-02-28T03:58:52;22.10;34.00
49184;DHT22;35021;49.214;12.270;2024-02-28T04:01:19;22.10;34.00
49184;DHT22;35021;49.214;12.270;2024-02-28T04:03:46;22.10;33.90
49184;DHT22;35021;49.214;12.270;2024-02-28T04:06:13;22.10;33.90
49184;DHT22;35021;49.214;12.270;2024-02-28T04:08:41;22.10;33.90
49184;DHT22;35021;49.214;12.270;2024-02-28T04:11:08;22.10;33.90
49184;DHT22;35021;49.214;12.270;2024-02-28T04:13:37;22.10;33.90
49184;DHT22;35021;49.214;12.270;2024-02-28T04:16:04;22.00;33.90
49184;DHT22;35021;49.214;12.270;2024-02-28T04:18:31;22.00;33.90
49184;DHT22;35021;49.214;12.270;2024-02-28T04:20:58;22.00;34.00
49184;DHT22;35021;49.214;12.270;2024-02-28T04:23:25;22.00;34.00
49184;DHT22;35021;49.214;12.270;2024-02-28T04:25:52;22.00;33.90
49184;DHT22;35021;49.214;12.270;2024-02-28T04:28:19;22.10;33.90
49184;DHT22;35021;49.214;12.270;2024-02-28T04:30:46;22.10;33.80
49184;DHT22;35021;49.214;12.270;2024-02-28T04:33:13;22.10;33.70
49184;DHT22;35021;49.214;12.270;2024-02-28T04:35:41;22.10;33.70
49184;DHT22;35021;49.214;12.270;2024-02-28T04:38:08;22.10;33.70
49184;DHT22;35021;49.214;12.270;2024-02-28T04:40:35;22.10;33.80
49184;DHT22;35021;49.214;12.270;2024-02-28T04:43:03;22.00;33.80
49184;DHT22;35021;49.214;12.270;2024-02-28T04:45:30;22.00;33.90
49184;DHT22;35021;49.214;12.270;2024-02-28T04:47:57;21.90;34.00
49184;DHT22;35021;49.214;12.270;2024-02-28T04:50:24;21.80;34.10
49184;DHT22;35021;49.214;12.270;2024-02-28T04:52:52;21.70;34.20
49184;DHT22;35021;49.214;12.270;2024-02-28T04:55:19;21.60;34.40
49184;DHT22;35021;49.214;12.270;2024-02-28T04:57:46;21.50;34.40
49184;DHT22;35021;49.214;12.270;2024-02-28T05:00:14;21.40;34.50
49184;DHT22;35021;49.214;12.270;2024-02-28T05:02:41;21.40;34.60
49184;DHT22;35021;49.214;12.270;2024-02-28T05:05:08;21.40;34.70
49184;DHT22;35021;49.214;12.270;2024-02-28T05:07:35;21.40;34.70
49184;DHT22;35021;49.214;12.270;2024-02-28T05:10:02;21.40;34.60
49184;DHT22;35021;49.214;12.270;2024-02-28T05:12:30;21.40;34.50
49184;DHT22;35021;49.214;12.270;2024-02-28T05:14:57;21.50;34.50
49184;DHT22;35021;49.214;12.270;2024-02-28T05:17:23;21.50;34.40
49184;DHT22;35021;49.214;12.270;2024-02-28T05:19:51;21.60;34.30
49184;DHT22;35021;49.214;12.270;2024-02-28T05:22:18;21.60;34.20
49184;DHT22;35021;49.214;12.270;2024-02-28T05:24:48;21.60;34.20
49184;DHT22;35021;49.214;12.270;2024-02-28T05:27:16;21.60;34.20
49184;DHT22;35021;49.214;12.270;2024-02-28T05:29:43;21.60;34.10
49184;DHT22;35021;49.214;12.270;2024-02-28T05:32:10;21.60;34.90
49184;DHT22;35021;49.214;12.270;2024-02-28T05:34:37;21.50;34.20
49184;DHT22;35021;49.214;12.270;2024-02-28T05:37:03;21.50;34.20
49184;DHT22;35021;49.214;12.270;2024-02-28T05:39:30;21.40;34.30
49184;DHT22;35021;49.214;12.270;2024-02-28T05:41:58;21.40;34.40
49184;DHT22;35021;49.214;12.270;2024-02-28T05:44:25;21.30;34.40
49184;DHT22;35021;49.214;12.270;2024-02-28T05:46:52;21.30;34.40
49184;DHT22;35021;49.214;12.270;2024-02-28T05:49:19;21.30;34.40
49184;DHT22;35021;49.214;12.270;2024-02-28T05:51:46;21.30;34.40
49184;DHT22;35021;49.214;12.270;2024-02-28T05:54:14;21.30;34.40
49184;DHT22;35021;49.214;12.270;2024-02-28T05:56:41;21.40;34.40
49184;DHT22;35021;49.214;12.270;2024-02-28T05:59:08;21.40;34.30
49184;DHT22;35021;49.214;12.270;2024-02-28T06:01:35;21.50;34.30
49184;DHT22;35021;49.214;12.270;2024-02-28T06:04:03;21.50;34.20
49184;DHT22;35021;49.214;12.270;2024-02-28T06:06:30;21.60;34.20
49184;DHT22;35021;49.214;12.270;2024-02-28T06:08:57;21.60;34.10
49184;DHT22;35021;49.214;12.270;2024-02-28T06:11:24;21.60;34.10
49184;DHT22;35021;49.214;12.270;2024-02-28T06:13:51;21.70;34.10
49184;DHT22;35021;49.214;12.270;2024-02-28T06:16:18;21.60;34.10
49184;DHT22;35021;49.214;12.270;2024-02-28T06:18:46;21.60;34.10
49184;DHT22;35021;49.214;12.270;2024-02-28T06:21:13;21.60;34.20
49184;DHT22;35021;49.214;12.270;2024-02-28T06:23:40;21.60;34.20
49184;DHT22;35021;49.214;12.270;2024-02-28T06:26:07;21.60;34.20
49184;DHT22;35021;49.214;12.270;2024-02-28T06:28:41;21.60;34.20
49184;DHT22;35021;49.214;12.270;2024-02-28T06:31:14;21.60;34.20
49184;DHT22;35021;49.214;12.270;2024-02-28T06:33:41;21.60;34.10
49184;DHT22;35021;49.214;12.270;2024-02-28T06:36:08;21.70;34.10
49184;DHT22;35021;49.214;12.270;2024-02-28T06:38:35;21.70;34.00
49184;DHT22;35021;49.214;12.270;2024-02-28T06:41:03;21.80;34.00
49184;DHT22;35021;49.214;12.270;2024-02-28T06:43:30;21.90;33.90
49184;DHT22;35021;49.214;12.270;2024-02-28T06:45:59;21.90;33.80
49184;DHT22;35021;49.214;12.270;2024-02-28T06:48:27;22.00;33.80
49184;DHT22;35021;49.214;12.270;2024-02-28T06:50:54;22.00;33.80
49184;DHT22;35021;49.214;12.270;2024-02-28T06:53:21;22.00;33.90
49184;DHT22;35021;49.214;12.270;2024-02-28T06:55:48;21.90;33.90
49184;DHT22;35021;49.214;12.270;2024-02-28T06:58:15;21.90;34.00
49184;DHT22;35021;49.214;12.270;2024-02-28T07:00:43;21.80;34.00
49184;DHT22;35021;49.214;12.270;2024-02-28T07:03:10;21.80;34.10
49184;DHT22;35021;49.214;12.270;2024-02-28T07:05:37;21.80;34.20
49184;DHT22;35021;49.214;12.270;2024-02-28T07:08:04;21.70;34.20
49184;DHT22;35021;49.214;12.270;2024-02-28T07:10:31;21.70;34.30
49184;DHT22;35021;49.214;12.270;2024-02-28T07:12:59;21.70;34.30
49184;DHT22;35021;49.214;12.270;2024-02-28T07:15:26;21.80;34.30
49184;DHT22;35021;49.214;12.270;2024-02-28T07:17:53;21.80;34.20
49184;DHT22;35021;49.214;12.270;2024-02-28T07:20:20;21.80;34.00
49184;DHT22;35021;49.214;12.270;2024-02-28T07:22:47;21.90;34.00
49184;DHT22;35021;49.214;12.270;2024-02-28T07:25:14;22.00;33.80
49184;DHT22;35021;49.214;12.270;2024-02-28T07:27:41;22.00;33.70
49184;DHT22;35021;49.214;12.270;2024-02-28T07:30:08;22.00;33.50
49184;DHT22;35021;49.214;12.270;2024-02-28T07:32:35;22.10;33.50
49184;DHT22;35021;49.214;12.270;2024-02-28T07:35:03;22.10;33.50
49184;DHT22;35021;49.214;12.270;2024-02-28T07:37:30;22.10;33.50
49184;DHT22;35021;49.214;12.270;2024-02-28T07:39:57;22.10;33.50
49184;DHT22;35021;49.214;12.270;2024-02-28T07:42:25;22.10;33.50
49184;DHT22;35021;49.214;12.270;2024-02-28T07:44:52;22.00;33.50
49184;DHT22;35021;49.214;12.270;2024-02-28T07:47:23;22.00;33.60
49184;DHT22;35021;49.214;12.270;2024-02-28T07:49:50;22.00;33.80
49184;DHT22;35021;49.214;12.270;2024-02-28T07:52:17;22.00;33.70
49184;DHT22;35021;49.214;12.270;2024-02-28T07:54:44;21.90;33.70
49184;DHT22;35021;49.214;12.270;2024-02-28T07:57:11;21.90;33.80
49184;DHT22;35021;49.214;12.270;2024-02-28T07:59:39;21.90;33.90
49184;DHT22;35021;49.214;12.270;2024-02-28T08:02:07;21.90;33.90
49184;DHT22;35021;49.214;12.270;2024-02-28T08:04:34;21.80;33.90
49184;DHT22;35021;49.214;12.270;2024-02-28T08:07:01;21.80;33.90
49184;DHT22;35021;49.214;12.270;2024-02-28T08:09:28;21.90;33.90
49184;DHT22;35021;49.214;12.270;2024-02-28T08:11:55;21.80;33.80
49184;DHT22;35021;49.214;12.270;2024-02-28T08:14:24;21.90;34.00
49184;DHT22;35021;49.214;12.270;2024-02-28T08:16:51;21.80;34.00
49184;DHT22;35021;49.214;12.270;2024-02-28T08:19:18;21.80;34.10
49184;DHT22;35021;49.214;12.270;2024-02-28T08:21:45;21.70;34.10
49184;DHT22;35021;49.214;12.270;2024-02-28T08:24:12;21.70;34.20
49184;DHT22;35021;49.214;12.270;2024-02-28T08:26:39;21.60;34.30
49184;DHT22;35021;49.214;12.270;2024-02-28T08:29:07;21.60;34.40
49184;DHT22;35021;49.214;12.270;2024-02-28T08:31:39;21.50;34.30
49184;DHT22;35021;49.214;12.270;2024-02-28T08:34:06;21.50;34.20
49184;DHT22;35021;49.214;12.270;2024-02-28T08:36:33;21.60;34.30
49184;DHT22;35021;49.214;12.270;2024-02-28T08:39:00;21.60;34.10
49184;DHT22;35021;49.214;12.270;2024-02-28T08:41:28;21.70;34.10
49184;DHT22;35021;49.214;12.270;2024-02-28T08:43:55;21.70;33.90
49184;DHT22;35021;49.214;12.270;2024-02-28T08:46:22;21.80;33.90
49184;DHT22;35021;49.214;12.270;2024-02-28T08:48:49;21.90;33.80
49184;DHT22;35021;49.214;12.270;2024-02-28T08:51:16;21.90;33.70
49184;DHT22;35021;49.214;12.270;2024-02-28T08:53:43;21.90;33.60
49184;DHT22;35021;49.214;12.270;2024-02-28T08:56:11;21.90;33.70
49184;DHT22;35021;49.214;12.270;2024-02-28T08:58:38;21.80;33.60
49184;DHT22;35021;49.214;12.270;2024-02-28T09:01:05;21.80;33.70
49184;DHT22;35021;49.214;12.270;2024-02-28T09:03:32;21.70;33.80
49184;DHT22;35021;49.214;12.270;2024-02-28T09:06:00;21.70;33.90
49184;DHT22;35021;49.214;12.270;2024-02-28T09:08:27;21.70;33.90
49184;DHT22;35021;49.214;12.270;2024-02-28T09:10:54;21.70;34.00
49184;DHT22;35021;49.214;12.270;2024-02-28T09:13:21;21.60;33.90
49184;DHT22;35021;49.214;12.270;2024-02-28T09:15:48;21.60;33.90
49184;DHT22;35021;49.214;12.270;2024-02-28T09:18:19;21.60;34.00
49184;DHT22;35021;49.214;12.270;2024-02-28T09:20:46;21.60;34.00
49184;DHT22;35021;49.214;12.270;2024-02-28T09:23:13;21.60;34.00
49184;DHT22;35021;49.214;12.270;2024-02-28T09:25:41;21.60;33.90
49184;DHT22;35021;49.214;12.270;2024-02-28T09:28:08;21.60;33.90
49184;DHT22;35021;49.214;12.270;2024-02-28T09:30:39;21.70;33.90
49184;DHT22;35021;49.214;12.270;2024-02-28T09:33:18;21.70;33.90
49184;DHT22;35021;49.214;12.270;2024-02-28T09:35:46;21.70;33.90
49184;DHT22;35021;49.214;12.270;2024-02-28T09:38:13;21.70;33.90
49184;DHT22;35021;49.214;12.270;2024-02-28T09:40:40;21.70;33.80
49184;DHT22;35021;49.214;12.270;2024-02-28T09:43:11;21.70;33.80
49184;DHT22;35021;49.214;12.270;2024-02-28T09:45:39;21.60;33.80
49184;DHT22;35021;49.214;12.270;2024-02-28T09:48:08;21.60;33.80
49184;DHT22;35021;49.214;12.270;2024-02-28T09:50:35;21.50;33.90
49184;DHT22;35021;49.214;12.270;2024-02-28T09:53:03;21.40;34.00
49184;DHT22;35021;49.214;12.270;2024-02-28T09:55:36;21.40;34.00
49184;DHT22;35021;49.214;12.270;2024-02-28T09:58:03;21.40;34.10
49184;DHT22;35021;49.214;12.270;2024-02-28T10:00:31;21.40;34.20
49184;DHT22;35021;49.214;12.270;2024-02-28T10:02:59;21.40;34.20
49184;DHT22;35021;49.214;12.270;2024-02-28T10:05:28;21.40;34.20
49184;DHT22;35021;49.214;12.270;2024-02-28T10:07:55;21.50;34.30
49184;DHT22;35021;49.214;12.270;2024-02-28T10:10:22;21.50;34.30
49184;DHT22;35021;49.214;12.270;2024-02-28T10:12:50;21.60;34.30
49184;DHT22;35021;49.214;12.270;2024-02-28T10:15:17;21.60;34.30
49184;DHT22;35021;49.214;12.270;2024-02-28T10:17:44;21.70;34.30
49184;DHT22;35021;49.214;12.270;2024-02-28T10:20:11;21.70;34.20
49184;DHT22;35021;49.214;12.270;2024-02-28T10:22:38;21.70;34.10
49184;DHT22;35021;49.214;12.270;2024-02-28T10:25:05;21.80;34.20
49184;DHT22;35021;49.214;12.270;2024-02-28T10:27:33;21.80;34.10
49184;DHT22;35021;49.214;12.270;2024-02-28T10:30:01;21.90;34.10
49184;DHT22;35021;49.214;12.270;2024-02-28T10:32:32;21.90;34.10
49184;DHT22;35021;49.214;12.270;2024-02-28T10:35:00;22.00;34.70
49184;DHT22;35021;49.214;12.270;2024-02-28T10:37:28;22.10;33.90
49184;DHT22;35021;49.214;12.270;2024-02-28T10:39:57;22.10;33.80
49184;DHT22;35021;49.214;12.270;2024-02-28T10:42:27;22.20;33.60
49184;DHT22;35021;49.214;12.270;2024-02-28T10:44:57;22.20;33.50
49184;DHT22;35021;49.214;12.270;2024-02-28T10:47:45;22.20;33.40
49184;DHT22;35021;49.214;12.270;2024-02-28T10:50:13;22.20;33.50
49184;DHT22;35021;49.214;12.270;2024-02-28T10:52:45;22.20;33.40
49184;DHT22;35021;49.214;12.270;2024-02-28T10:55:14;22.20;33.50
49184;DHT22;35021;49.214;12.270;2024-02-28T10:57:41;22.20;33.40
49184;DHT22;35021;49.214;12.270;2024-02-28T11:00:09;22.20;33.40
49184;DHT22;35021;49.214;12.270;2024-02-28T11:02:36;22.30;33.50
49184;DHT22;35021;49.214;12.270;2024-02-28T11:05:03;22.30;33.40
49184;DHT22;35021;49.214;12.270;2024-02-28T11:07:31;22.40;33.30
49184;DHT22;35021;49.214;12.270;2024-02-28T11:10:03;22.40;33.20
49184;DHT22;35021;49.214;12.270;2024-02-28T11:12:31;22.50;33.00
49184;DHT22;35021;49.214;12.270;2024-02-28T11:15:01;22.60;32.90
49184;DHT22;35021;49.214;12.270;2024-02-28T11:17:31;22.60;32.80
49184;DHT22;35021;49.214;12.270;2024-02-28T11:19:59;22.70;32.70
49184;DHT22;35021;49.214;12.270;2024-02-28T11:22:29;22.80;32.60
49184;DHT22;35021;49.214;12.270;2024-02-28T11:24:56;22.80;32.50
49184;DHT22;35021;49.214;12.270;2024-02-28T11:27:23;22.90;32.40
49184;DHT22;35021;49.214;12.270;2024-02-28T11:29:50;23.00;32.40
49184;DHT22;35021;49.214;12.270;2024-02-28T11:32:17;23.10;32.30
49184;DHT22;35021;49.214;12.270;2024-02-28T11:34:44;23.10;32.10
49184;DHT22;35021;49.214;12.270;2024-02-28T11:37:12;23.20;32.10
49184;DHT22;35021;49.214;12.270;2024-02-28T11:39:39;23.20;32.00
49184;DHT22;35021;49.214;12.270;2024-02-28T11:42:10;23.20;32.00
49184;DHT22;35021;49.214;12.270;2024-02-28T11:44:37;23.20;31.90
49184;DHT22;35021;49.214;12.270;2024-02-28T11:47:04;23.30;32.00
49184;DHT22;35021;49.214;12.270;2024-02-28T11:49:34;23.20;31.80
49184;DHT22;35021;49.214;12.270;2024-02-28T11:52:02;23.30;31.80
49184;DHT22;35021;49.214;12.270;2024-02-28T11:54:30;23.30;31.80
49184;DHT22;35021;49.214;12.270;2024-02-28T11:56:57;23.30;31.70
49184;DHT22;35021;49.214;12.270;2024-02-28T11:59:26;23.30;31.60
49184;DHT22;35021;49.214;12.270;2024-02-28T12:01:53;23.40;31.60
49184;DHT22;35021;49.214;12.270;2024-02-28T12:04:25;23.40;31.50
49184;DHT22;35021;49.214;12.270;2024-02-28T12:06:52;23.50;31.50
49184;DHT22;35021;49.214;12.270;2024-02-28T12:09:19;23.50;31.40
49184;DHT22;35021;49.214;12.270;2024-02-28T12:12:00;23.50;31.40
49184;DHT22;35021;49.214;12.270;2024-02-28T12:14:27;23.40;31.40
49184;DHT22;35021;49.214;12.270;2024-02-28T12:16:54;23.40;31.50
49184;DHT22;35021;49.214;12.270;2024-02-28T12:19:23;23.30;31.60
49184;DHT22;35021;49.214;12.270;2024-02-28T12:21:50;23.30;31.70
49184;DHT22;35021;49.214;12.270;2024-02-28T12:24:17;23.20;31.80
49184;DHT22;35021;49.214;12.270;2024-02-28T12:26:44;23.10;31.90
49184;DHT22;35021;49.214;12.270;2024-02-28T12:29:12;23.10;32.00
49184;DHT22;35021;49.214;12.270;2024-02-28T12:31:39;23.00;32.00
49184;DHT22;35021;49.214;12.270;2024-02-28T12:34:06;22.90;32.10
49184;DHT22;35021;49.214;12.270;2024-02-28T12:36:33;22.90;32.20
49184;DHT22;35021;49.214;12.270;2024-02-28T12:39:01;22.90;32.30
49184;DHT22;35021;49.214;12.270;2024-02-28T12:41:28;22.90;32.30
49184;DHT22;35021;49.214;12.270;2024-02-28T12:43:55;22.90;32.30
49184;DHT22;35021;49.214;12.270;2024-02-28T12:46:22;22.80;32.30
49184;DHT22;35021;49.214;12.270;2024-02-28T12:48:49;22.80;32.40
49184;DHT22;35021;49.214;12.270;2024-02-28T12:54:01;22.80;32.60
49184;DHT22;35021;49.214;12.270;2024-02-28T12:56:28;22.70;32.60
49184;DHT22;35021;49.214;12.270;2024-02-28T12:58:55;22.70;32.70
49184;DHT22;35021;49.214;12.270;2024-02-28T13:01:22;22.60;32.60
49184;DHT22;35021;49.214;12.270;2024-02-28T13:03:49;22.60;32.70
49184;DHT22;35021;49.214;12.270;2024-02-28T13:06:17;22.50;32.70
49184;DHT22;35021;49.214;12.270;2024-02-28T13:08:44;22.40;32.70
49184;DHT22;35021;49.214;12.270;2024-02-28T13:11:11;22.40;32.90
49184;DHT22;35021;49.214;12.270;2024-02-28T13:13:38;22.30;33.00
49184;DHT22;35021;49.214;12.270;2024-02-28T13:16:05;22.30;32.90
49184;DHT22;35021;49.214;12.270;2024-02-28T13:18:32;22.30;32.90
49184;DHT22;35021;49.214;12.270;2024-02-28T13:20:59;22.40;32.90
49184;DHT22;35021;49.214;12.270;2024-02-28T13:23:26;22.40;32.90
49184;DHT22;35021;49.214;12.270;2024-02-28T13:25:53;22.40;32.80
49184;DHT22;35021;49.214;12.270;2024-02-28T13:28:20;22.50;32.80
49184;DHT22;35021;49.214;12.270;2024-02-28T13:30:47;22.50;32.80
49184;DHT22;35021;49.214;12.270;2024-02-28T13:33:15;22.60;32.80
49184;DHT22;35021;49.214;12.270;2024-02-28T13:35:42;22.60;32.70
49184;DHT22;35021;49.214;12.270;2024-02-28T13:38:09;22.70;32.60
49184;DHT22;35021;49.214;12.270;2024-02-28T13:40:36;22.70;32.60
49184;DHT22;35021;49.214;12.270;2024-02-28T13:43:04;22.70;33.20
49184;DHT22;35021;49.214;12.270;2024-02-28T13:45:31;22.80;32.40
49184;DHT22;35021;49.214;12.270;2024-02-28T13:47:58;22.80;32.30
49184;DHT22;35021;49.214;12.270;2024-02-28T13:50:25;22.90;32.20
49184;DHT22;35021;49.214;12.270;2024-02-28T13:52:58;22.90;32.10
49184;DHT22;35021;49.214;12.270;2024-02-28T13:55:25;23.00;32.00
49184;DHT22;35021;49.214;12.270;2024-02-28T13:57:52;23.00;32.00
49184;DHT22;35021;49.214;12.270;2024-02-28T14:00:18;23.10;31.80
49184;DHT22;35021;49.214;12.270;2024-02-28T14:02:45;23.10;31.70
49184;DHT22;35021;49.214;12.270;2024-02-28T14:05:12;23.20;31.70
49184;DHT22;35021;49.214;12.270;2024-02-28T14:07:39;23.20;31.60
49184;DHT22;35021;49.214;12.270;2024-02-28T14:10:06;23.20;31.50
49184;DHT22;35021;49.214;12.270;2024-02-28T14:12:37;23.20;31.40
49184;DHT22;35021;49.214;12.270;2024-02-28T14:15:06;23.30;31.40
49184;DHT22;35021;49.214;12.270;2024-02-28T14:17:33;23.30;31.40
49184;DHT22;35021;49.214;12.270;2024-02-28T14:20:00;23.30;31.40
49184;DHT22;35021;49.214;12.270;2024-02-28T14:22:28;23.30;31.50
49184;DHT22;35021;49.214;12.270;2024-02-28T14:24:55;23.20;31.50
49184;DHT22;35021;49.214;12.270;2024-02-28T14:27:22;23.20;31.60
49184;DHT22;35021;49.214;12.270;2024-02-28T14:29:52;23.10;31.50
49184;DHT22;35021;49.214;12.270;2024-02-28T14:32:19;23.10;31.60
49184;DHT22;35021;49.214;12.270;2024-02-28T14:34:53;23.00;31.60
49184;DHT22;35021;49.214;12.270;2024-02-28T14:37:24;23.00;31.70
49184;DHT22;35021;49.214;12.270;2024-02-28T14:39:50;22.90;31.70
49184;DHT22;35021;49.214;12.270;2024-02-28T14:42:18;22.90;31.80
49184;DHT22;35021;49.214;12.270;2024-02-28T14:44:45;22.90;31.90
49184;DHT22;35021;49.214;12.270;2024-02-28T14:47:12;22.80;32.00
49184;DHT22;35021;49.214;12.270;2024-02-28T14:49:39;22.70;32.10
49184;DHT22;35021;49.214;12.270;2024-02-28T14:52:06;22.60;32.10
49184;DHT22;35021;49.214;12.270;2024-02-28T14:54:33;22.60;32.30
49184;DHT22;35021;49.214;12.270;2024-02-28T14:57:00;22.50;32.40
49184;DHT22;35021;49.214;12.270;2024-02-28T14:59:27;22.50;32.40
49184;DHT22;35021;49.214;12.270;2024-02-28T15:01:54;22.40;32.40
49184;DHT22;35021;49.214;12.270;2024-02-28T15:04:21;22.50;32.40
49184;DHT22;35021;49.214;12.270;2024-02-28T15:06:48;22.60;32.40
49184;DHT22;35021;49.214;12.270;2024-02-28T15:09:16;22.60;32.40
49184;DHT22;35021;49.214;12.270;2024-02-28T15:11:43;22.70;32.40
49184;DHT22;35021;49.214;12.270;2024-02-28T15:14:10;22.70;32.40
49184;DHT22;35021;49.214;12.270;2024-02-28T15:16:37;22.70;32.30
49184;DHT22;35021;49.214;12.270;2024-02-28T15:19:04;22.70;32.40